»·PEaware :: N520MJ KSEA-KPDX

N520MJ :: KSEA-KPDX

FLIGHT INFORMATION

Flight Status: Arrived
Operator: Privately registered:
United States
More flights under this callsign
Pilot: Manuel P. (9695)
Aircraft: BOMBARDIER BD-100 CHALLENGER 300
(CL30)
More flights by this aircraft type
Origin: KSEA Seattle-Tacoma Intl
United States
Destination: KPDX Portland Intl
United States
More flights between these airports :: More routes between these airports
Route: +SEATL5 SEA BUWZO KRATR2
File this flight plan on PilotEdge
Remarks:
Altitude:
(Current/Filed)
23,000ft
Speed:
(Current/Filed)
400kts
Departed: 20-Jul-17 03:56 PM
Arrived: 20-Jul-17 04:24 PM
Distance/Time
Traveled:
112nm/0:28
Distance/Time
To Go:
Arrived

Flight Plot

Page will automatically refresh every two minutes.

Flight plan parsing failed; only flown route is shown


Map Options




Map Legend


Flown Route
Filed Route
Departure Airport
Arrival Airport
Navaid (VOR, NDB)
Fix

Horizontal Profiles

Position Reports

Time Latitude Longitude Heading Altitude Ground
Speed
20-Jul-17 15:33 47.436178 -122.304371 89 440ft 0kts
20-Jul-17 15:34 47.436178 -122.304371 89 440ft 0kts
20-Jul-17 15:35 47.436178 -122.304371 89 440ft 0kts
20-Jul-17 15:36 47.436178 -122.304371 89 440ft 0kts
20-Jul-17 15:37 47.436178 -122.304371 89 440ft 0kts
20-Jul-17 15:38 47.436178 -122.304371 89 440ft 0kts
20-Jul-17 15:39 47.436178 -122.304371 89 440ft 0kts
20-Jul-17 15:40 47.436178 -122.304371 89 440ft 0kts
20-Jul-17 15:41 47.436178 -122.304371 89 440ft 0kts
20-Jul-17 15:42 47.436178 -122.304371 89 440ft 0kts
20-Jul-17 15:43 47.436178 -122.304371 89 440ft 0kts
20-Jul-17 15:44 47.436178 -122.304371 89 440ft 0kts
20-Jul-17 15:45 47.436178 -122.304371 89 440ft 0kts
20-Jul-17 15:46 47.436178 -122.304371 89 440ft 0kts
20-Jul-17 15:47 47.436178 -122.304371 89 440ft 0kts
20-Jul-17 15:48 47.436178 -122.304371 89 440ft 0kts
20-Jul-17 15:49 47.436178 -122.304371 89 440ft 0kts
20-Jul-17 15:50 47.436178 -122.304371 89 440ft 0kts
20-Jul-17 15:51 47.436178 -122.304353 89 440ft 0kts
20-Jul-17 15:52 47.435693 -122.304426 266 440ft 8kts
20-Jul-17 15:53 47.437075 -122.305941 357 440ft 1kts
20-Jul-17 15:54 47.443047 -122.305902 0 440ft 26kts
20-Jul-17 15:55 47.449439 -122.305765 352 440ft 19kts
20-Jul-17 15:56 47.457295 -122.306252 1 440ft 34kts
20-Jul-17 15:57 47.463515 -122.306186 341 440ft 4kts
20-Jul-17 15:58 47.463563 -122.310694 243 439ft 2kts
20-Jul-17 15:59 47.452990 -122.311015 180 480ft 158kts
20-Jul-17 16:00 47.387149 -122.305072 178 2627ft 284kts
20-Jul-17 16:01 47.309742 -122.308965 185 4948ft 274kts
20-Jul-17 16:02 47.233705 -122.313068 185 8690ft 281kts
20-Jul-17 16:03 47.154842 -122.316180 182 11891ft 295kts
20-Jul-17 16:04 47.072076 -122.304404 185 14879ft 304kts
20-Jul-17 16:05 46.987056 -122.304729 189 17630ft 311kts
20-Jul-17 16:06 46.900643 -122.317249 183 20111ft 326kts
20-Jul-17 16:07 46.815547 -122.313246 187 22484ft 333kts
20-Jul-17 16:08 46.715906 -122.323251 192 22991ft 389kts
20-Jul-17 16:09 46.606769 -122.343482 192 21497ft 401kts
20-Jul-17 16:10 46.499924 -122.354690 185 18764ft 376kts
20-Jul-17 16:11 46.399969 -122.365164 191 16036ft 350kts
20-Jul-17 16:12 46.306621 -122.381021 188 13321ft 333kts
20-Jul-17 16:13 46.219899 -122.389657 188 13000ft 295kts
20-Jul-17 16:14 46.141460 -122.397509 188 13003ft 275kts
20-Jul-17 16:15 46.068996 -122.415770 204 13004ft 258kts
20-Jul-17 16:16 45.994458 -122.455045 203 10824ft 315kts
20-Jul-17 16:17 45.909204 -122.476244 173 8275ft 297kts
20-Jul-17 16:18 45.830295 -122.454527 170 6029ft 287kts
20-Jul-17 16:19 45.764639 -122.433565 169 5941ft 204kts
20-Jul-17 16:20 45.704367 -122.413690 170 5988ft 249kts
20-Jul-17 16:21 45.631409 -122.391904 170 5980ft 282kts
20-Jul-17 16:22 45.560587 -122.386035 194 4165ft 232kts
20-Jul-17 16:23 45.512852 -122.423536 266 2513ft 180kts
20-Jul-17 16:24 45.535771 -122.475902 309 1472ft 149kts
20-Jul-17 16:25 45.556982 -122.523937 300 846ft 135kts
20-Jul-17 16:26 45.574978 -122.569825 300 268ft 132kts
20-Jul-17 16:27 45.587895 -122.602892 300 35ft 36kts
20-Jul-17 16:28 45.588370 -122.605999 223 35ft 0kts
20-Jul-17 16:29 45.586555 -122.602802 152 35ft 9kts
20-Jul-17 16:30 45.585624 -122.603012 180 36ft 0kts

Navigation Log

Ident Type
Flight plan parsing failed, navigation log unavailable